Time;durP1;ratioP1;P1;durP2;ratioP2;P2;SDS_P1;SDS_P2;PMS_P1;PMS_P2;Temp;Humidity;BMP_temperature;BMP_pressure;BME280_temperature;BME280_humidity;BME280_pressure;Samples;Min_cycle;Max_cycle;Signal;HPM_P1;HPM_P2
2023/08/21 00:00:15;;;;;;;16.90;15.50;;;;;;;;;;110177;267;45067;-35
2023/08/21 00:03:16;;;;;;;17.30;15.80;;;;;;;;;;110175;267;39612;-37
2023/08/21 00:05:50;;;;;;;17.50;15.90;;;;;;;;;;110183;267;42925;-36
2023/08/21 00:08:35;;;;;;;17.20;15.80;;;;;;;;;;110145;267;42140;-37
2023/08/21 00:11:16;;;;;;;17.10;15.60;;;;;;;;;;110166;267;39148;-36
2023/08/21 00:13:55;;;;;;;16.90;15.40;;;;;;;;;;110175;267;39288;-36
2023/08/21 00:16:35;;;;;;;16.90;15.40;;;;;;;;;;110196;267;43989;-36
2023/08/21 00:19:17;;;;;;;17.60;16.00;;;;;;;;;;110112;267;43634;-36
2023/08/21 00:22:00;;;;;;;17.30;15.70;;;;;;;;;;110236;267;38459;-36
2023/08/21 00:24:42;;;;;;;17.50;15.90;;;;;;;;;;110159;267;40830;-36
2023/08/21 00:27:23;;;;;;;16.80;15.20;;;;;;;;;;110219;267;42940;-35
2023/08/21 00:30:03;;;;;;;16.60;15.20;;;;;;;;;;110189;267;42190;-37
2023/08/21 00:32:41;;;;;;;17.40;15.80;;;;;;;;;;110180;267;40266;-37
2023/08/21 00:35:19;;;;;;;18.40;16.70;;;;;;;;;;110184;267;39906;-37
2023/08/21 00:38:02;;;;;;;17.90;16.30;;;;;;;;;;110222;267;42926;-35
2023/08/21 00:40:37;;;;;;;17.50;15.90;;;;;;;;;;110181;267;42230;-35
2023/08/21 00:43:23;;;;;;;17.20;15.80;;;;;;;;;;110218;267;38828;-37
2023/08/21 00:46:05;;;;;;;17.40;15.80;;;;;;;;;;110213;267;39552;-37
2023/08/21 00:48:46;;;;;;;17.40;15.80;;;;;;;;;;110175;267;42944;-37
2023/08/21 00:51:24;;;;;;;17.80;16.20;;;;;;;;;;110204;267;48510;-37
2023/08/21 00:54:00;;;;;;;17.30;15.80;;;;;;;;;;110221;267;38770;-37
2023/08/21 00:56:36;;;;;;;17.50;16.00;;;;;;;;;;110220;267;39670;-36
2023/08/21 00:59:10;;;;;;;17.70;16.20;;;;;;;;;;110182;267;42879;-36
2023/08/21 01:01:56;;;;;;;17.10;15.50;;;;;;;;;;110215;267;41996;-37
2023/08/21 01:04:33;;;;;;;17.00;15.40;;;;;;;;;;110208;267;38818;-37
2023/08/21 01:07:10;;;;;;;17.80;16.20;;;;;;;;;;110213;267;39712;-37
2023/08/21 01:09:58;;;;;;;17.10;15.60;;;;;;;;;;110123;267;43100;-36
2023/08/21 01:12:48;;;;;;;16.80;15.30;;;;;;;;;;110162;267;41879;-36
2023/08/21 01:15:30;;;;;;;17.30;15.70;;;;;;;;;;110120;267;175412;-36
2023/08/21 01:18:12;;;;;;;17.30;15.80;;;;;;;;;;110225;267;39566;-37
2023/08/21 01:20:52;;;;;;;16.70;15.10;;;;;;;;;;110188;267;43064;-37
2023/08/21 01:23:35;;;;;;;16.90;15.40;;;;;;;;;;110208;267;42244;-37
2023/08/21 01:26:20;;;;;;;16.60;15.10;;;;;;;;;;110197;267;38638;-37
2023/08/21 01:28:58;;;;;;;16.60;15.10;;;;;;;;;;110235;267;39329;-37
2023/08/21 01:31:40;;;;;;;16.50;15.00;;;;;;;;;;110157;267;44305;-36
2023/08/21 01:34:22;;;;;;;16.40;15.00;;;;;;;;;;110183;267;42187;-36
2023/08/21 01:37:01;;;;;;;16.60;15.10;;;;;;;;;;110178;267;38736;-36
2023/08/21 01:39:41;;;;;;;17.20;15.60;;;;;;;;;;110188;267;39370;-36
2023/08/21 01:42:20;;;;;;;16.90;15.40;;;;;;;;;;110046;267;175035;-37
2023/08/21 01:44:54;;;;;;;17.60;16.00;;;;;;;;;;110175;267;42255;-36
2023/08/21 01:47:32;;;;;;;16.70;15.20;;;;;;;;;;110212;267;38807;-36
2023/08/21 01:50:16;;;;;;;16.50;15.10;;;;;;;;;;110249;267;39623;-36
2023/08/21 01:52:58;;;;;;;16.90;15.40;;;;;;;;;;110178;267;50044;-36
2023/08/21 01:55:32;;;;;;;16.60;15.10;;;;;;;;;;110202;267;41849;-36
2023/08/21 01:58:11;;;;;;;16.70;15.20;;;;;;;;;;110224;267;38699;-36
2023/08/21 02:00:53;;;;;;;16.90;15.40;;;;;;;;;;110113;267;175360;-37
2023/08/21 02:03:31;;;;;;;16.90;15.30;;;;;;;;;;110196;267;42954;-36
2023/08/21 02:06:09;;;;;;;16.80;15.30;;;;;;;;;;110232;267;42237;-36
2023/08/21 02:08:43;;;;;;;16.40;14.90;;;;;;;;;;110226;267;40005;-36
2023/08/21 02:11:19;;;;;;;16.70;15.20;;;;;;;;;;110175;267;39529;-36
2023/08/21 02:13:54;;;;;;;16.80;15.30;;;;;;;;;;110239;267;42733;-36
2023/08/21 02:16:33;;;;;;;16.40;14.90;;;;;;;;;;110190;267;42173;-37
2023/08/21 02:19:13;;;;;;;16.50;15.00;;;;;;;;;;110209;267;38705;-36
2023/08/21 02:21:46;;;;;;;16.70;15.20;;;;;;;;;;110023;267;175377;-36
2023/08/21 02:24:21;;;;;;;17.20;15.70;;;;;;;;;;110186;267;42959;-36
2023/08/21 02:26:55;;;;;;;16.90;15.40;;;;;;;;;;110190;267;42159;-36
2023/08/21 02:29:29;;;;;;;17.20;15.70;;;;;;;;;;110182;267;38638;-36
2023/08/21 02:32:06;;;;;;;16.80;15.30;;;;;;;;;;110158;267;39290;-36
2023/08/21 02:34:40;;;;;;;17.00;15.50;;;;;;;;;;110214;267;42761;-36
2023/08/21 02:37:21;;;;;;;16.70;15.20;;;;;;;;;;110188;267;44354;-36
2023/08/21 02:40:00;;;;;;;17.00;15.50;;;;;;;;;;110191;267;38857;-36
2023/08/21 02:42:47;;;;;;;17.10;15.60;;;;;;;;;;110185;267;39664;-36
2023/08/21 02:45:23;;;;;;;17.30;15.80;;;;;;;;;;110165;267;44177;-36
2023/08/21 02:48:01;;;;;;;17.40;15.90;;;;;;;;;;110202;267;42003;-36
2023/08/21 02:50:45;;;;;;;17.30;15.70;;;;;;;;;;110280;267;38957;-36
2023/08/21 02:53:21;;;;;;;17.20;15.70;;;;;;;;;;110054;267;174911;-36
2023/08/21 02:56:03;;;;;;;17.00;15.50;;;;;;;;;;110201;267;43343;-36
2023/08/21 02:58:44;;;;;;;17.20;15.70;;;;;;;;;;110190;267;43031;-36
2023/08/21 03:01:25;;;;;;;17.40;15.90;;;;;;;;;;110243;267;38673;-36
2023/08/21 03:04:12;;;;;;;17.60;16.10;;;;;;;;;;110164;267;39611;-36
2023/08/21 03:06:51;;;;;;;17.20;15.60;;;;;;;;;;110192;267;42956;-36
2023/08/21 03:09:29;;;;;;;17.90;16.20;;;;;;;;;;110226;267;42152;-36
2023/08/21 03:12:11;;;;;;;17.40;15.80;;;;;;;;;;110193;267;40107;-36
2023/08/21 03:14:57;;;;;;;17.80;16.20;;;;;;;;;;110191;267;45824;-36
2023/08/21 03:17:35;;;;;;;18.00;16.40;;;;;;;;;;110216;267;42963;-37
2023/08/21 03:20:22;;;;;;;17.20;15.70;;;;;;;;;;110175;267;42066;-37
2023/08/21 03:22:57;;;;;;;17.60;16.00;;;;;;;;;;110150;267;38562;-36
2023/08/21 03:25:41;;;;;;;17.50;16.00;;;;;;;;;;110213;267;39895;-36
2023/08/21 03:28:19;;;;;;;17.20;15.70;;;;;;;;;;110193;267;43761;-36
2023/08/21 03:31:06;;;;;;;16.80;15.30;;;;;;;;;;110178;267;43349;-36
2023/08/21 03:33:47;;;;;;;17.10;15.60;;;;;;;;;;110009;267;177160;-45
2023/08/21 03:36:30;;;;;;;17.20;15.70;;;;;;;;;;110188;267;39571;-36
2023/08/21 03:39:07;;;;;;;17.80;16.20;;;;;;;;;;110191;267;42959;-37
2023/08/21 03:41:48;;;;;;;17.40;15.90;;;;;;;;;;110203;267;42185;-36
2023/08/21 03:44:28;;;;;;;17.90;16.20;;;;;;;;;;110186;267;38732;-36
2023/08/21 03:47:08;;;;;;;16.40;14.90;;;;;;;;;;110218;267;39839;-36
2023/08/21 03:49:44;;;;;;;17.80;16.20;;;;;;;;;;110197;267;42561;-36
2023/08/21 03:52:18;;;;;;;17.70;16.20;;;;;;;;;;110219;267;43301;-36
2023/08/21 03:54:59;;;;;;;17.30;15.70;;;;;;;;;;110146;267;38725;-36
2023/08/21 03:57:36;;;;;;;17.40;15.80;;;;;;;;;;110073;267;175463;-36
2023/08/21 04:00:21;;;;;;;17.20;15.70;;;;;;;;;;110182;267;42544;-37
2023/08/21 04:02:59;;;;;;;17.30;15.70;;;;;;;;;;110184;267;43453;-36
2023/08/21 04:05:42;;;;;;;18.00;16.40;;;;;;;;;;110267;267;44495;-36
2023/08/21 04:08:20;;;;;;;17.90;16.20;;;;;;;;;;110189;267;39330;-36
2023/08/21 04:11:05;;;;;;;18.10;16.40;;;;;;;;;;110181;267;42698;-36
2023/08/21 04:13:42;;;;;;;18.30;16.70;;;;;;;;;;110211;267;42083;-37
2023/08/21 04:16:24;;;;;;;18.20;16.60;;;;;;;;;;110066;267;175431;-36
2023/08/21 04:19:04;;;;;;;18.20;16.60;;;;;;;;;;110238;267;39486;-36
2023/08/21 04:21:44;;;;;;;18.60;16.90;;;;;;;;;;110222;267;43028;-36
2023/08/21 04:24:27;;;;;;;17.70;16.10;;;;;;;;;;110202;267;41861;-36
2023/08/21 04:27:09;;;;;;;18.20;16.60;;;;;;;;;;110136;267;38425;-37
2023/08/21 04:29:46;;;;;;;18.30;16.60;;;;;;;;;;110174;267;43245;-36
2023/08/21 04:32:23;;;;;;;19.00;17.30;;;;;;;;;;110219;267;42930;-36
2023/08/21 04:35:00;;;;;;;18.30;16.70;;;;;;;;;;110211;267;41867;-36
2023/08/21 04:37:44;;;;;;;18.90;17.20;;;;;;;;;;110199;267;44878;-36
2023/08/21 04:40:27;;;;;;;18.50;16.90;;;;;;;;;;110167;267;39411;-36
2023/08/21 04:43:08;;;;;;;19.40;17.70;;;;;;;;;;110200;267;42765;-36
2023/08/21 04:45:56;;;;;;;18.80;17.20;;;;;;;;;;110151;267;42505;-36
2023/08/21 04:48:38;;;;;;;18.80;17.10;;;;;;;;;;110180;267;38462;-36
2023/08/21 04:51:21;;;;;;;18.60;16.90;;;;;;;;;;110207;267;41139;-37
2023/08/21 04:53:59;;;;;;;19.00;17.30;;;;;;;;;;110188;267;42843;-37
2023/08/21 04:56:37;;;;;;;19.20;17.50;;;;;;;;;;110178;267;42387;-36
2023/08/21 04:59:16;;;;;;;19.70;18.00;;;;;;;;;;110182;267;39771;-36
2023/08/21 05:01:58;;;;;;;18.40;16.80;;;;;;;;;;110161;267;39280;-36
2023/08/21 05:04:42;;;;;;;18.20;16.60;;;;;;;;;;110197;267;42550;-36
2023/08/21 05:07:18;;;;;;;19.20;17.50;;;;;;;;;;110171;267;42087;-36
2023/08/21 05:10:05;;;;;;;19.10;17.30;;;;;;;;;;110205;267;38752;-36
2023/08/21 05:12:47;;;;;;;19.20;17.40;;;;;;;;;;110165;267;39303;-36
2023/08/21 05:15:28;;;;;;;19.50;17.70;;;;;;;;;;110195;267;44259;-44
2023/08/21 05:18:06;;;;;;;19.30;17.60;;;;;;;;;;110153;267;41873;-48
2023/08/21 05:20:49;;;;;;;20.50;18.60;;;;;;;;;;110152;267;38609;-36
2023/08/21 05:23:29;;;;;;;18.80;17.10;;;;;;;;;;110187;267;39548;-36
2023/08/21 05:26:07;;;;;;;19.20;17.50;;;;;;;;;;110204;267;42938;-36
2023/08/21 05:28:45;;;;;;;19.90;18.10;;;;;;;;;;110159;267;48209;-36
2023/08/21 05:31:24;;;;;;;19.70;17.90;;;;;;;;;;110216;267;40628;-36
2023/08/21 05:34:01;;;;;;;18.90;17.10;;;;;;;;;;110201;267;39580;-36
2023/08/21 05:36:42;;;;;;;19.20;17.40;;;;;;;;;;110152;267;44137;-36
2023/08/21 05:39:20;;;;;;;19.10;17.40;;;;;;;;;;110170;267;42128;-36
2023/08/21 05:42:01;;;;;;;20.00;18.10;;;;;;;;;;110202;267;38534;-36
2023/08/21 05:44:39;;;;;;;20.10;18.30;;;;;;;;;;110158;267;39465;-36
2023/08/21 05:47:16;;;;;;;20.10;18.40;;;;;;;;;;110152;267;42539;-36
2023/08/21 05:49:58;;;;;;;20.90;19.00;;;;;;;;;;110186;267;41828;-36
2023/08/21 05:52:39;;;;;;;21.10;19.20;;;;;;;;;;110179;267;38858;-36
2023/08/21 05:55:28;;;;;;;20.70;18.80;;;;;;;;;;110187;267;39768;-36
2023/08/21 05:58:10;;;;;;;19.30;17.50;;;;;;;;;;110183;267;43391;-36
2023/08/21 06:00:51;;;;;;;20.70;18.90;;;;;;;;;;110192;267;42122;-36
2023/08/21 06:03:30;;;;;;;21.00;19.00;;;;;;;;;;110205;267;38748;-36
2023/08/21 06:06:10;;;;;;;21.00;19.20;;;;;;;;;;110225;267;39810;-36
2023/08/21 06:08:45;;;;;;;20.10;18.40;;;;;;;;;;110179;267;42955;-36
2023/08/21 06:11:19;;;;;;;20.40;18.60;;;;;;;;;;110206;267;42048;-36
2023/08/21 06:13:54;;;;;;;21.00;19.00;;;;;;;;;;110210;267;38851;-40
2023/08/21 06:16:28;;;;;;;20.40;18.60;;;;;;;;;;110118;267;175694;-36
2023/08/21 06:19:02;;;;;;;20.20;18.40;;;;;;;;;;110196;267;42778;-36
2023/08/21 06:21:36;;;;;;;20.50;18.70;;;;;;;;;;110188;267;41827;-36
2023/08/21 06:24:11;;;;;;;19.40;17.70;;;;;;;;;;110228;267;38837;-36
2023/08/21 06:26:47;;;;;;;18.60;17.00;;;;;;;;;;110206;267;39275;-36
2023/08/21 06:29:21;;;;;;;20.60;18.70;;;;;;;;;;110158;267;42480;-36
2023/08/21 06:31:55;;;;;;;19.00;17.30;;;;;;;;;;110245;267;42373;-36
2023/08/21 06:34:34;;;;;;;21.00;19.00;;;;;;;;;;110180;267;40358;-36
2023/08/21 06:37:10;;;;;;;20.00;18.20;;;;;;;;;;110206;267;39403;-36
2023/08/21 06:39:49;;;;;;;19.90;18.10;;;;;;;;;;109895;267;338646;-36
2023/08/21 06:42:25;;;;;;;20.30;18.30;;;;;;;;;;110194;267;42006;-36
2023/08/21 06:45:05;;;;;;;19.70;17.90;;;;;;;;;;110197;267;38559;-36
2023/08/21 06:47:42;;;;;;;19.60;17.90;;;;;;;;;;110225;267;39485;-36
2023/08/21 06:50:19;;;;;;;20.40;18.60;;;;;;;;;;110310;267;48676;-36
2023/08/21 06:52:54;;;;;;;19.60;17.90;;;;;;;;;;110185;267;42194;-36
2023/08/21 06:55:29;;;;;;;19.70;17.90;;;;;;;;;;110176;267;38804;-36
2023/08/21 06:58:09;;;;;;;24.30;20.60;;;;;;;;;;110190;267;39558;-36
2023/08/21 07:00:43;;;;;;;20.70;18.60;;;;;;;;;;110209;267;49465;-36
2023/08/21 07:03:19;;;;;;;20.00;18.20;;;;;;;;;;109513;267;892070;-36
2023/08/21 07:05:59;;;;;;;19.30;17.50;;;;;;;;;;110152;267;38635;-36
2023/08/21 07:08:40;;;;;;;19.00;17.40;;;;;;;;;;110176;267;39757;-36
2023/08/21 07:11:21;;;;;;;18.80;17.10;;;;;;;;;;110220;267;42849;-36
2023/08/21 07:13:55;;;;;;;19.00;17.20;;;;;;;;;;110178;267;41800;-36
2023/08/21 07:16:29;;;;;;;18.90;17.20;;;;;;;;;;110197;267;40132;-36
2023/08/21 07:19:07;;;;;;;18.30;16.70;;;;;;;;;;110136;267;39265;-36
2023/08/21 07:21:46;;;;;;;18.50;16.90;;;;;;;;;;110226;267;43039;-36
2023/08/21 07:24:24;;;;;;;18.40;16.80;;;;;;;;;;110195;267;41834;-36
2023/08/21 07:27:02;;;;;;;18.20;16.50;;;;;;;;;;110207;267;38668;-36
2023/08/21 07:29:40;;;;;;;18.30;16.70;;;;;;;;;;110179;267;39261;-36
2023/08/21 07:32:24;;;;;;;19.30;17.50;;;;;;;;;;110169;267;42478;-36
2023/08/21 07:35:03;;;;;;;17.90;16.40;;;;;;;;;;110184;267;42341;-36
2023/08/21 07:37:41;;;;;;;18.10;16.50;;;;;;;;;;110193;267;38777;-36
2023/08/21 07:40:21;;;;;;;18.20;16.60;;;;;;;;;;110177;267;39677;-36
2023/08/21 07:42:59;;;;;;;18.70;16.90;;;;;;;;;;110213;267;42630;-36
2023/08/21 07:45:39;;;;;;;18.50;16.80;;;;;;;;;;110191;267;42083;-36
2023/08/21 07:48:18;;;;;;;18.30;16.60;;;;;;;;;;110214;267;38701;-36
2023/08/21 07:50:58;;;;;;;18.30;16.60;;;;;;;;;;110152;267;41071;-36
2023/08/21 07:53:35;;;;;;;18.60;16.80;;;;;;;;;;110192;267;42503;-36
2023/08/21 07:56:14;;;;;;;18.30;16.60;;;;;;;;;;110174;267;42086;-36
2023/08/21 07:58:52;;;;;;;18.30;16.70;;;;;;;;;;110189;267;38689;-36
2023/08/21 08:01:30;;;;;;;18.60;16.90;;;;;;;;;;110155;267;39571;-36
2023/08/21 08:04:11;;;;;;;17.40;15.90;;;;;;;;;;110186;267;42904;-36
2023/08/21 08:06:49;;;;;;;18.10;16.50;;;;;;;;;;110174;267;42275;-36
2023/08/21 08:09:28;;;;;;;17.70;16.10;;;;;;;;;;110216;267;38440;-36
2023/08/21 08:12:04;;;;;;;17.00;15.50;;;;;;;;;;110117;267;46327;-36
2023/08/21 08:14:42;;;;;;;17.40;15.90;;;;;;;;;;110196;267;42994;-33
2023/08/21 08:17:16;;;;;;;16.40;14.90;;;;;;;;;;110122;267;43388;-32
2023/08/21 08:19:50;;;;;;;16.20;14.80;;;;;;;;;;110251;267;38731;-35
2023/08/21 08:22:26;;;;;;;17.20;15.60;;;;;;;;;;110213;267;39624;-33
2023/08/21 08:25:00;;;;;;;16.00;14.50;;;;;;;;;;110241;267;42500;-33
2023/08/21 08:27:34;;;;;;;16.00;14.60;;;;;;;;;;110232;267;41833;-33
2023/08/21 08:30:16;;;;;;;15.10;13.70;;;;;;;;;;110175;267;38518;-35
2023/08/21 08:32:51;;;;;;;16.60;15.20;;;;;;;;;;110271;259;45757;-35
2023/08/21 08:35:29;;;;;;;15.30;14.00;;;;;;;;;;110280;267;43009;-34
2023/08/21 08:38:03;;;;;;;15.00;13.70;;;;;;;;;;110339;267;42186;-36
2023/08/21 08:40:45;;;;;;;15.00;13.70;;;;;;;;;;110281;267;38778;-34
2023/08/21 08:43:21;;;;;;;15.50;14.10;;;;;;;;;;110272;267;39285;-35
2023/08/21 08:45:57;;;;;;;15.20;13.90;;;;;;;;;;110318;267;43926;-35
2023/08/21 08:48:34;;;;;;;15.40;14.00;;;;;;;;;;110327;259;44037;-34
2023/08/21 08:51:12;;;;;;;15.00;13.70;;;;;;;;;;110202;267;38711;-34
2023/08/21 08:53:48;;;;;;;15.00;13.60;;;;;;;;;;110166;267;39563;-36
2023/08/21 08:56:23;;;;;;;15.10;13.70;;;;;;;;;;110218;259;42540;-35
2023/08/21 08:58:57;;;;;;;14.20;12.90;;;;;;;;;;110096;267;174984;-35
2023/08/21 09:01:32;;;;;;;15.00;13.70;;;;;;;;;;110170;267;39186;-34
2023/08/21 09:04:09;;;;;;;14.10;12.80;;;;;;;;;;110179;267;39744;-34
2023/08/21 09:06:43;;;;;;;14.70;13.40;;;;;;;;;;110235;267;42541;-35
2023/08/21 09:09:17;;;;;;;14.60;13.30;;;;;;;;;;110214;267;41816;-34
2023/08/21 09:11:54;;;;;;;14.40;13.10;;;;;;;;;;110172;267;38672;-34
2023/08/21 09:14:32;;;;;;;13.80;12.60;;;;;;;;;;110198;264;39539;-33
2023/08/21 09:17:10;;;;;;;14.30;13.10;;;;;;;;;;110070;259;174974;-35
2023/08/21 09:19:44;;;;;;;13.60;12.40;;;;;;;;;;110171;264;42001;-35
2023/08/21 09:22:21;;;;;;;13.70;12.50;;;;;;;;;;110065;267;191737;-33
2023/08/21 09:25:12;;;;;;;13.40;12.20;;;;;;;;;;110248;259;39502;-36
2023/08/21 09:27:46;;;;;;;12.40;11.40;;;;;;;;;;110230;259;42565;-34
2023/08/21 09:30:19;;;;;;;12.40;11.30;;;;;;;;;;110229;267;41794;-34
2023/08/21 09:33:03;;;;;;;11.60;10.60;;;;;;;;;;110171;267;38806;-33
2023/08/21 09:35:39;;;;;;;11.70;10.60;;;;;;;;;;110177;267;39701;-34
2023/08/21 09:38:14;;;;;;;10.10;9.10;;;;;;;;;;110228;263;43539;-36
2023/08/21 09:40:54;;;;;;;9.90;9.00;;;;;;;;;;110213;267;43258;-36
2023/08/21 09:43:32;;;;;;;9.80;8.80;;;;;;;;;;110168;267;38808;-35
2023/08/21 09:46:12;;;;;;;9.30;8.40;;;;;;;;;;110245;263;39649;-35
2023/08/21 09:48:46;;;;;;;9.50;8.60;;;;;;;;;;110209;259;42787;-35
2023/08/21 09:51:22;;;;;;;9.20;8.30;;;;;;;;;;110202;267;42178;-34
2023/08/21 09:53:58;;;;;;;8.40;7.60;;;;;;;;;;110162;267;38686;-34
2023/08/21 09:56:31;;;;;;;8.40;7.60;;;;;;;;;;110197;267;39653;-35
2023/08/21 09:59:07;;;;;;;8.10;7.30;;;;;;;;;;110057;267;175422;-35
2023/08/21 10:01:45;;;;;;;8.00;7.20;;;;;;;;;;110155;267;42053;-35
2023/08/21 10:04:22;;;;;;;7.30;6.60;;;;;;;;;;110181;267;38419;-34
2023/08/21 10:06:58;;;;;;;7.70;6.90;;;;;;;;;;110180;267;39308;-33
2023/08/21 10:09:33;;;;;;;7.50;6.60;;;;;;;;;;110084;267;175409;-33
2023/08/21 10:12:13;;;;;;;7.10;6.40;;;;;;;;;;110206;267;42009;-33
2023/08/21 10:14:48;;;;;;;7.20;6.40;;;;;;;;;;110276;267;44403;-35
2023/08/21 10:17:23;;;;;;;6.60;5.90;;;;;;;;;;110196;267;39576;-34
2023/08/21 10:19:59;;;;;;;6.50;5.80;;;;;;;;;;110220;267;45257;-35
2023/08/21 10:22:49;;;;;;;6.10;5.40;;;;;;;;;;110149;267;43407;-35
2023/08/21 10:25:32;;;;;;;5.90;5.30;;;;;;;;;;110135;259;44581;-34
2023/08/21 10:28:15;;;;;;;6.10;5.40;;;;;;;;;;110218;267;39692;-34
2023/08/21 10:30:51;;;;;;;6.30;5.40;;;;;;;;;;110178;267;43011;-34
2023/08/21 10:33:53;;;;;;;6.40;5.70;;;;;;;;;;110121;267;41943;-34
2023/08/21 10:37:07;;;;;;;7.30;6.40;;;;;;;;;;110168;260;38739;-34
2023/08/21 10:40:02;;;;;;;6.90;6.20;;;;;;;;;;110178;267;39839;-34
2023/08/21 10:42:46;;;;;;;7.60;6.80;;;;;;;;;;110158;267;43151;-34
2023/08/21 10:45:33;;;;;;;8.00;7.20;;;;;;;;;;110114;267;43365;-34
2023/08/21 10:48:12;;;;;;;8.10;7.10;;;;;;;;;;110167;267;38541;-34
2023/08/21 10:50:51;;;;;;;8.10;7.30;;;;;;;;;;110227;267;39302;-34
2023/08/21 10:53:27;;;;;;;7.90;7.10;;;;;;;;;;110175;267;43106;-34
2023/08/21 10:56:07;;;;;;;7.90;7.10;;;;;;;;;;110143;267;42154;-34
2023/08/21 10:58:51;;;;;;;8.10;7.30;;;;;;;;;;110197;267;38691;-34
2023/08/21 11:01:27;;;;;;;7.40;6.70;;;;;;;;;;110182;267;39648;-34
2023/08/21 11:04:01;;;;;;;7.90;7.10;;;;;;;;;;110128;267;43925;-34
2023/08/21 11:06:42;;;;;;;7.60;6.80;;;;;;;;;;110162;267;48532;-34
2023/08/21 11:09:17;;;;;;;7.10;6.20;;;;;;;;;;110144;267;38850;-33
2023/08/21 11:11:53;;;;;;;7.40;6.50;;;;;;;;;;110212;260;40769;-33
2023/08/21 11:14:36;;;;;;;7.10;6.40;;;;;;;;;;110140;267;42800;-34
2023/08/21 11:17:18;;;;;;;6.70;6.00;;;;;;;;;;110196;267;42004;-33
2023/08/21 11:19:57;;;;;;;6.90;6.10;;;;;;;;;;110220;267;38741;-33
2023/08/21 11:22:40;;;;;;;6.90;5.70;;;;;;;;;;110163;267;39580;-34
2023/08/21 11:25:17;;;;;;;6.40;5.70;;;;;;;;;;110147;267;44033;-35
2023/08/21 11:27:55;;;;;;;6.20;5.20;;;;;;;;;;110195;267;42219;-35
2023/08/21 11:30:29;;;;;;;6.50;4.90;;;;;;;;;;110160;267;38625;-35
2023/08/21 11:33:13;;;;;;;6.00;4.90;;;;;;;;;;110204;267;39335;-34
2023/08/21 11:35:51;;;;;;;6.40;4.40;;;;;;;;;;110154;267;42616;-35
2023/08/21 11:38:29;;;;;;;5.90;4.50;;;;;;;;;;110188;267;42291;-35
2023/08/21 11:41:11;;;;;;;5.70;4.30;;;;;;;;;;110205;267;38483;-34
2023/08/21 11:43:46;;;;;;;5.50;4.30;;;;;;;;;;110194;259;39501;-34
2023/08/21 11:46:21;;;;;;;5.30;4.20;;;;;;;;;;110151;267;42508;-33
2023/08/21 11:49:00;;;;;;;5.70;3.90;;;;;;;;;;110160;267;43393;-34
2023/08/21 11:51:44;;;;;;;5.80;4.00;;;;;;;;;;110249;267;38467;-36
2023/08/21 11:54:21;;;;;;;6.30;4.10;;;;;;;;;;110062;267;175338;-36
2023/08/21 11:57:02;;;;;;;5.80;3.90;;;;;;;;;;110131;263;42751;-35
2023/08/21 11:59:37;;;;;;;6.10;4.10;;;;;;;;;;110240;267;42032;-36
2023/08/21 12:02:22;;;;;;;5.20;3.60;;;;;;;;;;110326;267;38642;-34
2023/08/21 12:05:07;;;;;;;6.10;4.10;;;;;;;;;;110292;264;39632;-34
2023/08/21 12:07:45;;;;;;;5.30;3.50;;;;;;;;;;110349;263;48619;-35
2023/08/21 12:10:27;;;;;;;5.30;3.90;;;;;;;;;;110276;259;42001;-36
2023/08/21 12:13:02;;;;;;;4.80;3.50;;;;;;;;;;110177;260;38718;-35
2023/08/21 12:15:40;;;;;;;5.10;3.60;;;;;;;;;;110273;259;39539;-36
2023/08/21 12:18:15;;;;;;;5.10;3.60;;;;;;;;;;110290;267;48441;-36
2023/08/21 12:20:49;;;;;;;5.30;3.50;;;;;;;;;;110273;267;42237;-35
2023/08/21 12:23:23;;;;;;;5.40;3.50;;;;;;;;;;110229;259;38477;-36
2023/08/21 12:26:00;;;;;;;5.10;3.20;;;;;;;;;;110148;268;40834;-36
2023/08/21 12:28:38;;;;;;;4.60;3.20;;;;;;;;;;110177;268;49220;-36
2023/08/21 12:31:17;;;;;;;5.60;3.10;;;;;;;;;;110271;259;41792;-36
2023/08/21 12:33:51;;;;;;;4.90;3.00;;;;;;;;;;110289;267;38709;-36
2023/08/21 12:36:29;;;;;;;4.70;2.90;;;;;;;;;;110250;267;40841;-36
2023/08/21 12:39:07;;;;;;;4.40;3.00;;;;;;;;;;110288;267;42761;-36
2023/08/21 12:41:41;;;;;;;4.90;2.80;;;;;;;;;;110307;267;42273;-36
2023/08/21 12:44:16;;;;;;;4.20;2.90;;;;;;;;;;110225;263;38498;-37
2023/08/21 12:46:50;;;;;;;4.70;3.00;;;;;;;;;;110225;267;39589;-36
2023/08/21 12:49:25;;;;;;;5.10;2.80;;;;;;;;;;110292;263;43055;-36
2023/08/21 12:52:02;;;;;;;5.00;2.70;;;;;;;;;;110263;263;42062;-34
2023/08/21 12:54:37;;;;;;;4.40;2.60;;;;;;;;;;110228;259;38432;-34
2023/08/21 12:57:13;;;;;;;4.90;2.30;;;;;;;;;;110079;264;39721;-34
2023/08/21 12:59:48;;;;;;;3.90;2.40;;;;;;;;;;110233;259;42790;-34
2023/08/21 13:02:24;;;;;;;3.90;2.30;;;;;;;;;;110214;267;41801;-34
2023/08/21 13:05:00;;;;;;;4.90;2.40;;;;;;;;;;110251;266;38789;-33
2023/08/21 13:07:34;;;;;;;4.50;2.50;;;;;;;;;;110256;267;39587;-34
2023/08/21 13:10:13;;;;;;;4.60;2.20;;;;;;;;;;110315;267;42725;-33
2023/08/21 13:12:51;;;;;;;4.60;2.60;;;;;;;;;;110295;266;41800;-33
2023/08/21 13:15:35;;;;;;;4.60;2.60;;;;;;;;;;110266;267;38831;-33
2023/08/21 13:18:09;;;;;;;6.20;2.80;;;;;;;;;;110244;267;39939;-35
2023/08/21 13:20:46;;;;;;;4.00;2.20;;;;;;;;;;110273;267;42537;-32
2023/08/21 13:23:20;;;;;;;4.00;2.20;;;;;;;;;;110307;267;43079;-35
2023/08/21 13:25:58;;;;;;;4.10;2.20;;;;;;;;;;110319;267;39750;-33
2023/08/21 13:28:37;;;;;;;4.80;2.60;;;;;;;;;;110154;259;40843;-36
2023/08/21 13:31:18;;;;;;;4.10;2.20;;;;;;;;;;110185;259;42738;-36
2023/08/21 13:33:56;;;;;;;3.80;2.20;;;;;;;;;;110174;267;42643;-36
2023/08/21 13:36:33;;;;;;;3.90;2.10;;;;;;;;;;109625;263;891780;-36
2023/08/21 13:39:15;;;;;;;3.80;1.90;;;;;;;;;;110254;266;40598;-36
2023/08/21 13:41:55;;;;;;;3.60;2.00;;;;;;;;;;110155;267;42484;-36
2023/08/21 13:44:33;;;;;;;3.40;1.90;;;;;;;;;;110210;267;42002;-36
2023/08/21 13:47:11;;;;;;;3.90;1.90;;;;;;;;;;110296;266;38417;-36
2023/08/21 13:49:49;;;;;;;3.80;1.90;;;;;;;;;;110126;259;192627;-36
2023/08/21 13:52:26;;;;;;;3.70;1.90;;;;;;;;;;110284;263;43048;-36
2023/08/21 13:55:05;;;;;;;3.60;1.90;;;;;;;;;;110317;259;41993;-36
2023/08/21 13:57:40;;;;;;;3.90;1.70;;;;;;;;;;110342;266;38756;-36
2023/08/21 14:00:18;;;;;;;4.10;1.70;;;;;;;;;;110361;267;47294;-36
2023/08/21 14:02:52;;;;;;;3.50;1.90;;;;;;;;;;110316;259;42509;-36
2023/08/21 14:05:33;;;;;;;3.40;1.70;;;;;;;;;;110285;267;43236;-36
2023/08/21 14:08:09;;;;;;;3.60;1.60;;;;;;;;;;110247;263;38716;-36
2023/08/21 14:10:50;;;;;;;3.00;1.50;;;;;;;;;;110304;266;48005;-34
2023/08/21 14:13:25;;;;;;;3.50;1.70;;;;;;;;;;110290;266;42913;-35
2023/08/21 14:16:04;;;;;;;3.50;1.70;;;;;;;;;;110329;266;41773;-35
2023/08/21 14:18:43;;;;;;;3.30;1.80;;;;;;;;;;110262;267;38431;-35
2023/08/21 14:21:16;;;;;;;4.10;1.80;;;;;;;;;;110314;266;39736;-35
2023/08/21 14:23:49;;;;;;;3.30;1.70;;;;;;;;;;110263;267;43103;-36
2023/08/21 14:26:24;;;;;;;3.60;1.80;;;;;;;;;;110316;263;41754;-35
2023/08/21 14:28:59;;;;;;;3.50;1.90;;;;;;;;;;110245;266;38535;-35
2023/08/21 14:31:37;;;;;;;3.40;1.80;;;;;;;;;;110286;266;39592;-35
2023/08/21 14:34:14;;;;;;;3.80;1.80;;;;;;;;;;110296;267;42751;-35
2023/08/21 14:36:50;;;;;;;3.40;1.70;;;;;;;;;;110295;266;43279;-35
2023/08/21 14:39:25;;;;;;;3.60;1.90;;;;;;;;;;110230;266;38791;-35
2023/08/21 14:42:04;;;;;;;3.90;1.80;;;;;;;;;;109958;267;40167;-35
2023/08/21 14:44:44;;;;;;;3.40;1.70;;;;;;;;;;110287;266;42756;-35
2023/08/21 14:47:17;;;;;;;3.80;1.70;;;;;;;;;;110273;266;43092;-36
2023/08/21 14:49:53;;;;;;;3.70;2.00;;;;;;;;;;110233;267;38897;-36
2023/08/21 14:52:30;;;;;;;3.70;1.90;;;;;;;;;;110171;267;40002;-35
2023/08/21 14:55:07;;;;;;;3.40;1.80;;;;;;;;;;110284;263;42482;-35
2023/08/21 14:57:44;;;;;;;3.60;2.00;;;;;;;;;;110288;266;42467;-35
2023/08/21 15:00:20;;;;;;;3.40;1.70;;;;;;;;;;110258;267;38855;-36
2023/08/21 15:02:53;;;;;;;4.00;2.00;;;;;;;;;;110317;259;39820;-35
2023/08/21 15:05:34;;;;;;;3.40;1.80;;;;;;;;;;110221;259;42811;-35
2023/08/21 15:08:16;;;;;;;3.20;1.70;;;;;;;;;;110304;266;41762;-35
2023/08/21 15:10:50;;;;;;;3.60;1.80;;;;;;;;;;110289;267;38684;-36
2023/08/21 15:13:23;;;;;;;4.10;1.90;;;;;;;;;;110284;267;40597;-35
2023/08/21 15:15:57;;;;;;;3.60;2.00;;;;;;;;;;110173;267;175313;-35
2023/08/21 15:18:35;;;;;;;3.40;1.70;;;;;;;;;;110184;267;42063;-36
2023/08/21 15:21:10;;;;;;;4.90;2.30;;;;;;;;;;110242;267;38667;-36
2023/08/21 15:23:46;;;;;;;6.20;2.20;;;;;;;;;;110283;263;39440;-36
2023/08/21 15:26:23;;;;;;;4.50;2.30;;;;;;;;;;110248;267;42518;-37
2023/08/21 15:28:57;;;;;;;4.40;2.20;;;;;;;;;;110292;267;43127;-36
2023/08/21 15:31:31;;;;;;;4.50;2.30;;;;;;;;;;110247;267;38470;-36